Central Wisconsin Airport
KCWA : now visible

Airfield :











YOU CAN JOIN US ON...

 
LOGIN :

Register | Disclaimer

   EN    FR    IT 

 









Legend :    VFR   Marginal VFR   IFR   Intensive IFR   Very Intensive IFR
Visi :
Ceiling :
>= 8 km
>= 3000ft
5 to 8 km
1000 to 3000 ft
1500m to 5 km
500 to 1000 ft
800 to 1500m
200 to 500 ft
< 800m
< 200 ft
Symbols :   Thunderstorms  Fog  Heavy snow  Heavy precipitations  Wind > 20 kt






- Airport Elevation : 1277 ft


KCWA - Central Wisconsin

CURRENT METAR :
  • 212347Z 24004KT 10SM SCT100 OVC120 01/M02 A3019

EXPIRED METARs :
  • 212247Z 25005KT 7SM OVC120 01/M03 A3018
  • 212147Z 25007KT 10SM SCT050 BKN110 02/M02 A3018

TAF KCWA
Valid from the 22 at 00:00 until the 23 at 00:00 UTC


212337Z 2200/2224 25010KT P6SM OVC100
FM220200 01003KT P6SM OVC100
FM221200 08006KT P6SM BKN050
FM221400 08008KT P6SM -SN BKN025
FM221500 07010G19KT 5SM -RASN BR OVC012
FM221800 05011G17KT 6SM SHRA OVC009
FM222100 04013G20KT 4SM SHRA OVC003 AMD LTD TO CLD VIS AND WIND 2203/2211
KZMP FIR / North America



MET'MAP, your aeronautical weather chart ! - Copyright ORBIFLY December 2007 - Disclaimer

ORBIFLY MET'MAP TEAM :

Programming & Development : Alexandra Zaïnal
Concept & original design : Baudouin d'Aumeries
Assistance for programming : Marc-Olivier Méhu
Technical & hardware support : Manuel Goepfert

Contact : metmap@orbifly.com




SOURCES & CREDITS :

   NOAA       Earth
Advisory